PWSweather.com
Personal Weather Stations
Station Observations
KTXPLANO60
Highlands Of Russell Park, Plano, TX 75025

Highlands Of Russell ParkPlano, TX 75025

Lat: 33.10431671, Lon: -96.75176239

Elevation: 761

Station Type: Davis Wireless VP2 Plus

http://www.planoweather.com

Latest ConditionsUpdated 5:20:01 PM CST Tuesday, Jan 24, 2017
Currently Today's Max Today's Min Today's Average
Temperature 73.5°F23.1°C 76.7°F24.8°C 51.2°F10.7°C 61.6°F16.4°C
Dew Point 56.4°F13.6°C 57.0°F13.9°C 39.1°F3.9°C 44.5°F6.9°C
Winds 4.6 mph S7.4 kmh S 17.3 mph SW27.8 kmh SW - 7.2 mph 11.6 kmh
Wind Gusts 10.4 mph16.7 kmh 21.9 mph35.2 kmh - -
Humidity 55% 67% 38% 54%
Pressure 29.53 in1000.0 mb 29.72 in1006.4 mb 29.53 in1000.0 mb -
Hour Temp Dew Point Humidity Winds Wind Gusts Pressure Precip Precip Rate Daily Precip Total
05:20 PM 73.5°F23.1°C 56.4°F13.6°C 55% 4.6 mph S7.4 kmh S 10.4 mph16.7 kmh 29.53 in1000.0 mb - 0.00 in0.0 mm 0.00 in0.0 mm
05:10 PM 73.7°F23.2°C 57.0°F13.9°C 56% 2.3 mph S3.7 kmh S 8.1 mph13.0 kmh 29.53 in1000.0 mb - 0.00 in0.0 mm 0.00 in0.0 mm
05:00 PM 73.9°F23.3°C 56.7°F13.7°C 55% 2.3 mph SSW3.7 kmh SSW 4.6 mph7.4 kmh 29.53 in1000.0 mb - 0.00 in0.0 mm 0.00 in0.0 mm
04:50 PM 74.1°F23.4°C 56.9°F13.8°C 55% 5.8 mph S9.3 kmh S 10.4 mph16.7 kmh 29.53 in1000.0 mb - 0.00 in0.0 mm 0.00 in0.0 mm
04:40 PM 74.1°F23.4°C 56.4°F13.6°C 54% 5.8 mph S9.3 kmh S 11.5 mph18.5 kmh 29.53 in1000.0 mb - 0.00 in0.0 mm 0.00 in0.0 mm
04:30 PM 74.1°F23.4°C 56.4°F13.6°C 54% 2.3 mph SSW3.7 kmh SSW 5.8 mph9.3 kmh 29.53 in1000.0 mb - 0.00 in0.0 mm 0.00 in0.0 mm
04:20 PM 74.0°F23.3°C 56.3°F13.5°C 54% 3.5 mph S5.6 kmh S 12.7 mph20.4 kmh 29.53 in1000.0 mb - 0.00 in0.0 mm 0.00 in0.0 mm
04:10 PM 74.1°F23.4°C 55.9°F13.3°C 53% 6.9 mph S11.1 kmh S 12.7 mph20.4 kmh 29.53 in1000.0 mb - 0.00 in0.0 mm 0.00 in0.0 mm
04:00 PM 74.2°F23.4°C 55.4°F13.0°C 52% 6.9 mph S11.1 kmh S 12.7 mph20.4 kmh 29.53 in1000.0 mb - 0.00 in0.0 mm 0.00 in0.0 mm
03:50 PM 74.4°F23.6°C 55.6°F13.1°C 52% 8.1 mph S13.0 kmh S 10.4 mph16.7 kmh 29.53 in1000.0 mb - 0.00 in0.0 mm 0.00 in0.0 mm
03:40 PM 74.8°F23.8°C 55.5°F13.1°C 51% 3.5 mph S5.6 kmh S 6.9 mph11.1 kmh 29.53 in1000.0 mb - 0.00 in0.0 mm 0.00 in0.0 mm
03:30 PM 75.1°F23.9°C 54.7°F12.6°C 49% 5.8 mph S9.3 kmh S 10.4 mph16.7 kmh 29.53 in1000.0 mb - 0.00 in0.0 mm 0.00 in0.0 mm
03:20 PM 75.2°F24.0°C 54.7°F12.6°C 49% 3.5 mph S5.6 kmh S 9.2 mph14.8 kmh 29.53 in1000.0 mb - 0.00 in0.0 mm 0.00 in0.0 mm
03:10 PM 75.6°F24.2°C 54.5°F12.5°C 48% 4.6 mph S7.4 kmh S 9.2 mph14.8 kmh 29.53 in1000.0 mb - 0.00 in0.0 mm 0.00 in0.0 mm
03:00 PM 76.3°F24.6°C 52.2°F11.2°C 43% 5.8 mph S9.3 kmh S 10.4 mph16.7 kmh 29.53 in1000.0 mb - 0.00 in0.0 mm 0.00 in0.0 mm
02:50 PM 76.2°F24.6°C 51.4°F10.8°C 42% 9.2 mph S14.8 kmh S 15.0 mph24.1 kmh 29.53 in1000.0 mb - 0.00 in0.0 mm 0.00 in0.0 mm
02:40 PM 76.6°F24.8°C 50.5°F10.3°C 40% 6.9 mph S11.1 kmh S 9.2 mph14.8 kmh 29.53 in1000.0 mb - 0.00 in0.0 mm 0.00 in0.0 mm
02:30 PM 76.7°F24.8°C 51.2°F10.7°C 41% 8.1 mph S13.0 kmh S 13.8 mph22.2 kmh 29.54 in1000.3 mb - 0.00 in0.0 mm 0.00 in0.0 mm
02:20 PM 76.7°F24.8°C 50.6°F10.3°C 40% 9.2 mph SW14.8 kmh SW 19.6 mph31.5 kmh 29.55 in1000.7 mb - 0.00 in0.0 mm 0.00 in0.0 mm
02:10 PM 76.1°F24.5°C 50.0°F10.0°C 40% 10.4 mph SSW16.7 kmh SSW 17.3 mph27.8 kmh 29.54 in1000.3 mb - 0.00 in0.0 mm 0.00 in0.0 mm
02:00 PM 75.6°F24.2°C 48.9°F9.4°C 39% 16.1 mph SW25.9 kmh SW 20.7 mph33.3 kmh 29.55 in1000.7 mb - 0.00 in0.0 mm 0.00 in0.0 mm
01:50 PM 76.5°F24.7°C 49.0°F9.4°C 38% 15.0 mph SSW24.1 kmh SSW 19.6 mph31.5 kmh 29.55 in1000.7 mb - 0.00 in0.0 mm 0.00 in0.0 mm
01:40 PM 76.1°F24.5°C 48.6°F9.2°C 38% 8.1 mph SW13.0 kmh SW 11.5 mph18.5 kmh 29.55 in1000.7 mb - 0.00 in0.0 mm 0.00 in0.0 mm
01:30 PM 75.7°F24.3°C 48.3°F9.1°C 38% 10.4 mph S16.7 kmh S 21.9 mph35.2 kmh 29.56 in1001.0 mb - 0.00 in0.0 mm 0.00 in0.0 mm
01:20 PM 75.3°F24.1°C 48.6°F9.2°C 39% 6.9 mph SSW11.1 kmh SSW 11.5 mph18.5 kmh 29.56 in1001.0 mb - 0.00 in0.0 mm 0.00 in0.0 mm
01:10 PM 74.9°F23.8°C 48.3°F9.1°C 39% 12.7 mph SSW20.4 kmh SSW 18.4 mph29.6 kmh 29.56 in1001.0 mb - 0.00 in0.0 mm 0.00 in0.0 mm
01:00 PM 74.2°F23.4°C 47.6°F8.7°C 39% 15.0 mph SSW24.1 kmh SSW 20.7 mph33.3 kmh 29.57 in1001.4 mb - 0.00 in0.0 mm 0.00 in0.0 mm
12:50 PM 74.2°F23.4°C 47.6°F8.7°C 39% 17.3 mph SW27.8 kmh SW 19.6 mph31.5 kmh 29.57 in1001.4 mb - 0.00 in0.0 mm 0.00 in0.0 mm
12:40 PM 75.2°F24.0°C 49.2°F9.6°C 40% 6.9 mph S11.1 kmh S 8.1 mph13.0 kmh 29.59 in1002.0 mb - 0.00 in0.0 mm 0.00 in0.0 mm
12:30 PM 74.8°F23.8°C 48.8°F9.3°C 40% 6.9 mph S11.1 kmh S 10.4 mph16.7 kmh 29.59 in1002.0 mb - 0.00 in0.0 mm 0.00 in0.0 mm
12:20 PM 73.0°F22.8°C 48.6°F9.2°C 42% 6.9 mph S11.1 kmh S 16.1 mph25.9 kmh 29.59 in1002.0 mb - 0.00 in0.0 mm 0.00 in0.0 mm
12:10 PM 72.5°F22.5°C 48.7°F9.3°C 43% 3.5 mph SSW5.6 kmh SSW 8.1 mph13.0 kmh 29.60 in1002.4 mb - 0.00 in0.0 mm 0.00 in0.0 mm
12:00 PM 71.7°F22.1°C 48.6°F9.2°C 44% 4.6 mph S7.4 kmh S 9.2 mph14.8 kmh 29.61 in1002.7 mb - 0.00 in0.0 mm 0.00 in0.0 mm
11:50 AM 70.3°F21.3°C 47.4°F8.6°C 44% 8.1 mph SSW13.0 kmh SSW 11.5 mph18.5 kmh 29.62 in1003.0 mb - 0.00 in0.0 mm 0.00 in0.0 mm
11:40 AM 69.2°F20.7°C 47.5°F8.6°C 46% 10.4 mph S16.7 kmh S 13.8 mph22.2 kmh 29.62 in1003.0 mb - 0.00 in0.0 mm 0.00 in0.0 mm
11:30 AM 68.6°F20.3°C 47.0°F8.3°C 46% 8.1 mph S13.0 kmh S 13.8 mph22.2 kmh 29.62 in1003.0 mb - 0.00 in0.0 mm 0.00 in0.0 mm
11:20 AM 69.0°F20.6°C 47.3°F8.5°C 46% 4.6 mph S7.4 kmh S 16.1 mph25.9 kmh 29.63 in1003.4 mb - 0.00 in0.0 mm 0.00 in0.0 mm
11:10 AM 68.0°F20.0°C 47.0°F8.3°C 47% 9.2 mph SSW14.8 kmh SSW 13.8 mph22.2 kmh 29.63 in1003.4 mb - 0.00 in0.0 mm 0.00 in0.0 mm
11:00 AM 67.1°F19.5°C 46.2°F7.9°C 47% 10.4 mph S16.7 kmh S 20.7 mph33.3 kmh 29.63 in1003.4 mb - 0.00 in0.0 mm 0.00 in0.0 mm
10:50 AM 65.2°F18.4°C 45.6°F7.6°C 49% 8.1 mph S13.0 kmh S 16.1 mph25.9 kmh 29.64 in1003.7 mb - 0.00 in0.0 mm 0.00 in0.0 mm
10:40 AM 63.9°F17.7°C 44.9°F7.2°C 50% 6.9 mph SSW11.1 kmh SSW 9.2 mph14.8 kmh 29.64 in1003.7 mb - 0.00 in0.0 mm 0.00 in0.0 mm
10:30 AM 63.1°F17.3°C 44.2°F6.8°C 50% 9.2 mph S14.8 kmh S 16.1 mph25.9 kmh 29.64 in1003.7 mb - 0.00 in0.0 mm 0.00 in0.0 mm
10:20 AM 62.3°F16.8°C 43.9°F6.6°C 51% 9.2 mph S14.8 kmh S 15.0 mph24.1 kmh 29.64 in1003.7 mb - 0.00 in0.0 mm 0.00 in0.0 mm
10:10 AM 61.7°F16.5°C 43.4°F6.3°C 51% 6.9 mph S11.1 kmh S 15.0 mph24.1 kmh 29.64 in1003.7 mb - 0.00 in0.0 mm 0.00 in0.0 mm
10:00 AM 61.0°F16.1°C 42.7°F5.9°C 51% 10.4 mph S16.7 kmh S 18.4 mph29.6 kmh 29.63 in1003.4 mb - 0.00 in0.0 mm 0.00 in0.0 mm
09:50 AM 60.1°F15.6°C 42.4°F5.8°C 52% 10.4 mph S16.7 kmh S 18.4 mph29.6 kmh 29.63 in1003.4 mb - 0.00 in0.0 mm 0.00 in0.0 mm
09:40 AM 59.1°F15.1°C 41.9°F5.5°C 53% 6.9 mph S11.1 kmh S 11.5 mph18.5 kmh 29.63 in1003.4 mb - 0.00 in0.0 mm 0.00 in0.0 mm
09:30 AM 58.6°F14.8°C 42.0°F5.6°C 54% 10.4 mph S16.7 kmh S 19.6 mph31.5 kmh 29.63 in1003.4 mb - 0.00 in0.0 mm 0.00 in0.0 mm
09:20 AM 57.8°F14.3°C 41.7°F5.4°C 55% 10.4 mph S16.7 kmh S 19.6 mph31.5 kmh 29.63 in1003.4 mb - 0.00 in0.0 mm 0.00 in0.0 mm
09:10 AM 56.6°F13.7°C 41.6°F5.3°C 57% 9.2 mph S14.8 kmh S 12.7 mph20.4 kmh 29.63 in1003.4 mb - 0.00 in0.0 mm 0.00 in0.0 mm
09:00 AM 55.8°F13.2°C 41.7°F5.4°C 59% 8.1 mph S13.0 kmh S 13.8 mph22.2 kmh 29.63 in1003.4 mb - 0.00 in0.0 mm 0.00 in0.0 mm
08:50 AM 54.9°F12.7°C 41.7°F5.4°C 61% 11.5 mph S18.5 kmh S 19.6 mph31.5 kmh 29.63 in1003.4 mb - 0.00 in0.0 mm 0.00 in0.0 mm
08:40 AM 54.0°F12.2°C 41.7°F5.4°C 63% 8.1 mph S13.0 kmh S 12.7 mph20.4 kmh 29.64 in1003.7 mb - 0.00 in0.0 mm 0.00 in0.0 mm
08:30 AM 53.3°F11.8°C 41.4°F5.2°C 64% 9.2 mph S14.8 kmh S 12.7 mph20.4 kmh 29.64 in1003.7 mb - 0.00 in0.0 mm 0.00 in0.0 mm
08:20 AM 52.7°F11.5°C 41.3°F5.2°C 65% 6.9 mph S11.1 kmh S 10.4 mph16.7 kmh 29.64 in1003.7 mb - 0.00 in0.0 mm 0.00 in0.0 mm
08:10 AM 52.2°F11.2°C 41.2°F5.1°C 66% 9.2 mph S14.8 kmh S 11.5 mph18.5 kmh 29.64 in1003.7 mb - 0.00 in0.0 mm 0.00 in0.0 mm
08:00 AM 51.8°F11.0°C 40.8°F4.9°C 66% 6.9 mph S11.1 kmh S 10.4 mph16.7 kmh 29.64 in1003.7 mb - 0.00 in0.0 mm 0.00 in0.0 mm
07:50 AM 51.4°F10.8°C 40.8°F4.9°C 67% 5.8 mph S9.3 kmh S 9.2 mph14.8 kmh 29.65 in1004.1 mb - 0.00 in0.0 mm 0.00 in0.0 mm
07:40 AM 51.2°F10.7°C 40.6°F4.8°C 67% 5.8 mph S9.3 kmh S 8.1 mph13.0 kmh 29.65 in1004.1 mb - 0.00 in0.0 mm 0.00 in0.0 mm
07:30 AM 51.2°F10.7°C 40.6°F4.8°C 67% 6.9 mph S11.1 kmh S 11.5 mph18.5 kmh 29.65 in1004.1 mb - 0.00 in0.0 mm 0.00 in0.0 mm
07:20 AM 51.2°F10.7°C 40.2°F4.6°C 66% 4.6 mph S7.4 kmh S 8.1 mph13.0 kmh 29.65 in1004.1 mb - 0.00 in0.0 mm 0.00 in0.0 mm
07:10 AM 51.2°F10.7°C 40.2°F4.6°C 66% 5.8 mph S9.3 kmh S 10.4 mph16.7 kmh 29.65 in1004.1 mb - 0.00 in0.0 mm 0.00 in0.0 mm
07:00 AM 51.3°F10.7°C 40.3°F4.6°C 66% 4.6 mph SSE7.4 kmh SSE 10.4 mph16.7 kmh 29.64 in1003.7 mb - 0.00 in0.0 mm 0.00 in0.0 mm
06:50 AM 51.3°F10.7°C 39.9°F4.4°C 65% 4.6 mph S7.4 kmh S 5.8 mph9.3 kmh 29.64 in1003.7 mb - 0.00 in0.0 mm 0.00 in0.0 mm
06:40 AM 51.4°F10.8°C 40.0°F4.4°C 65% 5.8 mph S9.3 kmh S 10.4 mph16.7 kmh 29.64 in1003.7 mb - 0.00 in0.0 mm 0.00 in0.0 mm
06:30 AM 51.5°F10.8°C 39.8°F4.3°C 64% 5.8 mph S9.3 kmh S 8.1 mph13.0 kmh 29.64 in1003.7 mb - 0.00 in0.0 mm 0.00 in0.0 mm
06:20 AM 51.7°F10.9°C 39.9°F4.4°C 64% 6.9 mph S11.1 kmh S 11.5 mph18.5 kmh 29.64 in1003.7 mb - 0.00 in0.0 mm 0.00 in0.0 mm
06:10 AM 51.7°F10.9°C 39.9°F4.4°C 64% 6.9 mph S11.1 kmh S 11.5 mph18.5 kmh 29.64 in1003.7 mb - 0.00 in0.0 mm 0.00 in0.0 mm
06:00 AM 51.8°F11.0°C 39.6°F4.2°C 63% 5.8 mph S9.3 kmh S 10.4 mph16.7 kmh 29.64 in1003.7 mb - 0.00 in0.0 mm 0.00 in0.0 mm
05:50 AM 51.8°F11.0°C 39.6°F4.2°C 63% 6.9 mph S11.1 kmh S 10.4 mph16.7 kmh 29.64 in1003.7 mb - 0.00 in0.0 mm 0.00 in0.0 mm
05:40 AM 51.7°F10.9°C 39.5°F4.2°C 63% 5.8 mph S9.3 kmh S 11.5 mph18.5 kmh 29.63 in1003.4 mb - 0.00 in0.0 mm 0.00 in0.0 mm
05:30 AM 51.9°F11.1°C 39.3°F4.1°C 62% 6.9 mph S11.1 kmh S 11.5 mph18.5 kmh 29.63 in1003.4 mb - 0.00 in0.0 mm 0.00 in0.0 mm
05:20 AM 52.2°F11.2°C 39.6°F4.2°C 62% 6.9 mph S11.1 kmh S 11.5 mph18.5 kmh 29.63 in1003.4 mb - 0.00 in0.0 mm 0.00 in0.0 mm
05:10 AM 52.1°F11.2°C 39.5°F4.2°C 62% 6.9 mph S11.1 kmh S 11.5 mph18.5 kmh 29.62 in1003.0 mb - 0.00 in0.0 mm 0.00 in0.0 mm
05:00 AM 52.2°F11.2°C 39.1°F3.9°C 61% 6.9 mph S11.1 kmh S 13.8 mph22.2 kmh 29.63 in1003.4 mb - 0.00 in0.0 mm 0.00 in0.0 mm
04:50 AM 52.4°F11.3°C 39.3°F4.1°C 61% 8.1 mph S13.0 kmh S 10.4 mph16.7 kmh 29.63 in1003.4 mb - 0.00 in0.0 mm 0.00 in0.0 mm
04:40 AM 52.3°F11.3°C 39.2°F4.0°C 61% 6.9 mph S11.1 kmh S 12.7 mph20.4 kmh 29.63 in1003.4 mb - 0.00 in0.0 mm 0.00 in0.0 mm
04:30 AM 52.2°F11.2°C 39.1°F3.9°C 61% 5.8 mph S9.3 kmh S 10.4 mph16.7 kmh 29.63 in1003.4 mb - 0.00 in0.0 mm 0.00 in0.0 mm
04:20 AM 52.2°F11.2°C 39.5°F4.2°C 62% 8.1 mph S13.0 kmh S 11.5 mph18.5 kmh 29.64 in1003.7 mb - 0.00 in0.0 mm 0.00 in0.0 mm
04:10 AM 52.3°F11.3°C 39.7°F4.3°C 62% 5.8 mph S9.3 kmh S 9.2 mph14.8 kmh 29.64 in1003.7 mb - 0.00 in0.0 mm 0.00 in0.0 mm
04:00 AM 52.5°F11.4°C 39.4°F4.1°C 61% 4.6 mph S7.4 kmh S 6.9 mph11.1 kmh 29.64 in1003.7 mb - 0.00 in0.0 mm 0.00 in0.0 mm
03:50 AM 52.6°F11.4°C 39.5°F4.2°C 61% 4.6 mph S7.4 kmh S 8.1 mph13.0 kmh 29.65 in1004.1 mb - 0.00 in0.0 mm 0.00 in0.0 mm
03:40 AM 52.7°F11.5°C 39.6°F4.2°C 61% 4.6 mph S7.4 kmh S 11.5 mph18.5 kmh 29.65 in1004.1 mb - 0.00 in0.0 mm 0.00 in0.0 mm
03:30 AM 52.9°F11.6°C 39.9°F4.4°C 61% 5.8 mph S9.3 kmh S 6.9 mph11.1 kmh 29.66 in1004.4 mb - 0.00 in0.0 mm 0.00 in0.0 mm
03:20 AM 53.2°F11.8°C 39.7°F4.3°C 60% 5.8 mph S9.3 kmh S 10.4 mph16.7 kmh 29.66 in1004.4 mb - 0.00 in0.0 mm 0.00 in0.0 mm
03:10 AM 53.3°F11.8°C 39.8°F4.3°C 60% 4.6 mph S7.4 kmh S 8.1 mph13.0 kmh 29.66 in1004.4 mb - 0.00 in0.0 mm 0.00 in0.0 mm
03:00 AM 53.5°F11.9°C 39.5°F4.2°C 59% 5.8 mph S9.3 kmh S 10.4 mph16.7 kmh 29.67 in1004.7 mb - 0.00 in0.0 mm 0.00 in0.0 mm
02:50 AM 53.7°F12.1°C 39.7°F4.3°C 59% 5.8 mph S9.3 kmh S 9.2 mph14.8 kmh 29.67 in1004.7 mb - 0.00 in0.0 mm 0.00 in0.0 mm
02:40 AM 53.7°F12.1°C 39.7°F4.3°C 59% 6.9 mph S11.1 kmh S 9.2 mph14.8 kmh 29.67 in1004.7 mb - 0.00 in0.0 mm 0.00 in0.0 mm
02:30 AM 53.7°F12.1°C 39.7°F4.3°C 59% 5.8 mph S9.3 kmh S 11.5 mph18.5 kmh 29.67 in1004.7 mb - 0.00 in0.0 mm 0.00 in0.0 mm
02:20 AM 53.7°F12.1°C 39.7°F4.3°C 59% 6.9 mph S11.1 kmh S 11.5 mph18.5 kmh 29.67 in1004.7 mb - 0.00 in0.0 mm 0.00 in0.0 mm
02:10 AM 53.8°F12.1°C 39.4°F4.1°C 58% 5.8 mph S9.3 kmh S 10.4 mph16.7 kmh 29.67 in1004.7 mb - 0.00 in0.0 mm 0.00 in0.0 mm
02:00 AM 53.9°F12.2°C 39.5°F4.2°C 58% 9.2 mph S14.8 kmh S 12.7 mph20.4 kmh 29.67 in1004.7 mb - 0.00 in0.0 mm 0.00 in0.0 mm
01:50 AM 54.1°F12.3°C 39.6°F4.2°C 58% 8.1 mph S13.0 kmh S 13.8 mph22.2 kmh 29.68 in1005.1 mb - 0.00 in0.0 mm 0.00 in0.0 mm
01:40 AM 54.3°F12.4°C 39.8°F4.3°C 58% 6.9 mph S11.1 kmh S 10.4 mph16.7 kmh 29.68 in1005.1 mb - 0.00 in0.0 mm 0.00 in0.0 mm
01:30 AM 54.5°F12.5°C 39.5°F4.2°C 57% 5.8 mph S9.3 kmh S 8.1 mph13.0 kmh 29.68 in1005.1 mb - 0.00 in0.0 mm 0.00 in0.0 mm
01:20 AM 54.6°F12.6°C 39.7°F4.3°C 57% 5.8 mph S9.3 kmh S 9.2 mph14.8 kmh 29.68 in1005.1 mb - 0.00 in0.0 mm 0.00 in0.0 mm
01:10 AM 54.8°F12.7°C 39.8°F4.3°C 57% 6.9 mph S11.1 kmh S 11.5 mph18.5 kmh 29.68 in1005.1 mb - 0.00 in0.0 mm 0.00 in0.0 mm
01:00 AM 54.7°F12.6°C 39.8°F4.3°C 57% 6.9 mph S11.1 kmh S 11.5 mph18.5 kmh 29.69 in1005.4 mb - 0.00 in0.0 mm 0.00 in0.0 mm
12:50 AM 54.8°F12.7°C 39.4°F4.1°C 56% 5.8 mph S9.3 kmh S 11.5 mph18.5 kmh 29.69 in1005.4 mb - 0.00 in0.0 mm 0.00 in0.0 mm
12:40 AM 54.8°F12.7°C 39.4°F4.1°C 56% 8.1 mph S13.0 kmh S 11.5 mph18.5 kmh 29.70 in1005.8 mb - 0.00 in0.0 mm 0.00 in0.0 mm
12:30 AM 54.9°F12.7°C 39.5°F4.2°C 56% 6.9 mph S11.1 kmh S 9.2 mph14.8 kmh 29.71 in1006.1 mb - 0.00 in0.0 mm 0.00 in0.0 mm
12:20 AM 55.1°F12.8°C 39.7°F4.3°C 56% 5.8 mph S9.3 kmh S 9.2 mph14.8 kmh 29.71 in1006.1 mb - 0.00 in0.0 mm 0.00 in0.0 mm
12:10 AM 55.3°F12.9°C 39.4°F4.1°C 55% 6.9 mph S11.1 kmh S 11.5 mph18.5 kmh 29.72 in1006.4 mb - 0.00 in0.0 mm 0.00 in0.0 mm
12:00 AM 55.3°F12.9°C 39.4°F4.1°C 55% 6.9 mph S11.1 kmh S 11.5 mph18.5 kmh 29.72 in1006.4 mb - 0.00 in0.0 mm 0.00 in0.0 mm